createdAt,value
2023-03-10T00:01:26.829Z,99270.63
2023-03-10T00:03:57.189Z,99262.16
2023-03-10T00:06:28.655Z,99249.73
2023-03-10T00:08:57.455Z,99245.72
2023-03-10T00:11:26.203Z,99244.97
2023-03-10T00:13:54.718Z,99243.99
2023-03-10T00:16:26.776Z,99246.23
2023-03-10T00:18:55.907Z,99245.67
2023-03-10T00:21:27.089Z,99243.92
2023-03-10T00:23:55.866Z,99242.77
2023-03-10T00:26:27.686Z,99245.59
2023-03-10T00:28:56.299Z,99242.89
2023-03-10T00:31:26.614Z,99244.73
2023-03-10T00:33:56.285Z,99244.23
2023-03-10T00:36:27.881Z,99231.75
2023-03-10T00:38:57.497Z,99227.25
2023-03-10T00:41:28.539Z,99230.23
2023-03-10T00:43:57.647Z,99223.77
2023-03-10T00:46:27.057Z,99223.60
2023-03-10T00:48:56.008Z,99217.52
2023-03-10T00:51:24.532Z,99204.17
2023-03-10T00:53:53.345Z,99196.97
2023-03-10T00:56:24.172Z,99190.47
2023-03-10T00:58:54.929Z,99173.77
2023-03-10T01:01:33.145Z,99166.55
2023-03-10T01:04:05.376Z,99162.09
2023-03-10T01:06:35.127Z,99160.05
2023-03-10T01:09:04.837Z,99159.23
2023-03-10T01:11:33.989Z,99151.67
2023-03-10T01:14:05.332Z,99145.71
2023-03-10T01:16:34.021Z,99139.31
2023-03-10T01:19:02.889Z,99134.77
2023-03-10T01:21:34.585Z,99132.50
2023-03-10T01:24:03.676Z,99130.64
2023-03-10T01:26:32.759Z,99128.33
2023-03-10T01:29:03.246Z,99130.41
2023-03-10T01:31:31.990Z,99125.40
2023-03-10T01:34:00.978Z,99128.95
2023-03-10T01:36:29.919Z,99133.17
2023-03-10T01:38:58.699Z,99123.42
2023-03-10T01:41:27.120Z,99113.38
2023-03-10T01:44:05.299Z,99106.01
2023-03-10T01:46:45.309Z,99089.42
2023-03-10T01:49:28.398Z,99077.84
2023-03-10T01:52:05.614Z,99084.08
2023-03-10T01:55:02.497Z,99075.61
2023-03-10T01:57:36.727Z,99063.54
2023-03-10T02:00:13.382Z,99059.69
2023-03-10T02:03:09.175Z,99059.20
2023-03-10T02:05:42.005Z,99061.98
2023-03-10T02:08:12.976Z,99066.92
2023-03-10T02:10:42.084Z,99070.85
2023-03-10T02:13:10.782Z,99057.15
2023-03-10T02:15:41.338Z,99056.45
2023-03-10T02:18:13.173Z,99060.92
2023-03-10T02:20:59.607Z,99054.88
2023-03-10T02:24:00.856Z,99054.55
2023-03-10T02:27:02.807Z,99040.73
2023-03-10T02:29:58.066Z,99026.61
2023-03-10T02:32:32.066Z,99017.34
2023-03-10T02:35:00.474Z,99012.67
2023-03-10T02:37:32.378Z,99010.41
2023-03-10T02:40:01.611Z,98996.09
2023-03-10T02:42:37.054Z,98988.77
2023-03-10T02:45:05.964Z,98989.02
2023-03-10T02:47:34.367Z,98986.30
2023-03-10T02:50:03.130Z,98980.95
2023-03-10T02:52:55.953Z,98978.72
2023-03-10T02:55:24.556Z,98968.52
2023-03-10T02:57:52.856Z,98958.05
2023-03-10T03:00:21.593Z,98957.44
2023-03-10T03:02:49.817Z,98960.77
2023-03-10T03:05:18.353Z,98961.20
2023-03-10T03:07:46.875Z,98951.86
2023-03-10T03:10:15.367Z,98956.08
2023-03-10T03:12:44.238Z,98947.18
2023-03-10T03:15:13.090Z,98940.52
2023-03-10T03:17:41.576Z,98928.61
2023-03-10T03:20:14.485Z,98923.55
2023-03-10T03:22:44.675Z,98920.06
2023-03-10T03:25:15.748Z,98918.36
2023-03-10T03:27:44.482Z,98911.95
2023-03-10T03:30:22.411Z,98907.13
2023-03-10T03:32:51.204Z,98907.44
2023-03-10T03:35:32.675Z,98906.65
2023-03-10T03:38:01.927Z,98905.71
2023-03-10T03:40:33.817Z,98908.27
2023-03-10T03:43:02.782Z,98902.37
2023-03-10T03:45:32.750Z,98894.93
2023-03-10T03:48:01.334Z,98888.89
2023-03-10T03:50:29.691Z,98882.12
2023-03-10T03:52:58.265Z,98879.89
2023-03-10T03:55:26.501Z,98871.98
2023-03-10T03:57:55.039Z,98865.17
2023-03-10T04:00:25.514Z,98856.93
2023-03-10T04:02:56.966Z,98856.50
2023-03-10T04:05:26.630Z,98850.15
2023-03-10T04:07:55.219Z,98843.73
2023-03-10T04:10:24.035Z,98829.88
2023-03-10T04:12:52.561Z,98823.91
2023-03-10T04:15:21.367Z,98813.39
2023-03-10T04:17:49.855Z,98811.46
2023-03-10T04:20:18.438Z,98807.30
2023-03-10T04:22:46.964Z,98806.04
2023-03-10T04:25:15.704Z,98800.98
2023-03-10T04:27:43.992Z,98799.23
2023-03-10T04:30:14.332Z,98789.02
2023-03-10T04:32:42.774Z,98777.48
2023-03-10T04:35:13.516Z,98770.70
2023-03-10T04:37:42.460Z,98767.55
2023-03-10T04:40:15.320Z,98760.77
2023-03-10T04:42:43.962Z,98752.73
2023-03-10T04:45:13.210Z,98748.77
2023-03-10T04:47:41.636Z,98742.55
2023-03-10T04:50:12.116Z,98738.91
2023-03-10T04:52:40.522Z,98728.55
2023-03-10T04:55:09.816Z,98719.41
2023-03-10T04:57:38.212Z,98718.58
2023-03-10T05:00:08.956Z,98714.20
2023-03-10T05:02:37.876Z,98712.86
2023-03-10T05:05:07.138Z,98713.81
2023-03-10T05:07:35.974Z,98706.37
2023-03-10T05:10:05.729Z,98701.30
2023-03-10T05:12:34.340Z,98700.15
2023-03-10T05:15:02.836Z,98698.39
2023-03-10T05:17:31.434Z,98698.42
2023-03-10T05:19:59.686Z,98692.13
2023-03-10T05:22:27.811Z,98681.40
2023-03-10T05:24:56.164Z,98678.77
2023-03-10T05:27:24.843Z,98670.38
2023-03-10T05:29:53.171Z,98669.88
2023-03-10T05:32:21.670Z,98667.11
2023-03-10T05:34:49.971Z,98659.79
2023-03-10T05:37:18.613Z,98654.69
2023-03-10T05:39:47.077Z,98650.73
2023-03-10T05:42:15.870Z,98640.15
2023-03-10T05:44:44.232Z,98635.32
2023-03-10T05:47:14.538Z,98633.60
2023-03-10T05:49:43.043Z,98624.32
2023-03-10T05:52:11.993Z,98614.27
2023-03-10T05:54:40.812Z,98614.03
2023-03-10T05:57:09.446Z,98609.25
2023-03-10T05:59:37.837Z,98610.48
2023-03-10T06:02:06.528Z,98606.95
2023-03-10T06:04:34.709Z,98607.60
2023-03-10T06:07:03.183Z,98607.45
2023-03-10T06:09:33.289Z,98608.71
2023-03-10T06:12:01.588Z,98607.02
2023-03-10T06:14:29.898Z,98604.16
2023-03-10T06:16:58.258Z,98606.61
2023-03-10T06:19:26.606Z,98609.86
2023-03-10T06:21:54.756Z,98617.86
2023-03-10T06:24:23.065Z,98631.31
2023-03-10T06:26:51.165Z,98633.66
2023-03-10T06:29:19.925Z,98628.55
2023-03-10T06:31:48.451Z,98626.52
2023-03-10T06:34:16.901Z,98624.86
2023-03-10T06:36:45.613Z,98623.45
2023-03-10T06:39:14.103Z,98618.05
2023-03-10T06:41:42.380Z,98619.80
2023-03-10T06:44:10.730Z,98611.30
2023-03-10T06:46:40.111Z,98601.59
2023-03-10T06:49:08.321Z,98595.65
2023-03-10T06:51:36.442Z,98589.48
2023-03-10T06:54:05.548Z,98583.11
2023-03-10T06:56:33.704Z,98576.61
2023-03-10T06:59:02.679Z,98570.75
2023-03-10T07:01:33.542Z,98566.62
2023-03-10T07:04:02.064Z,98560.75
2023-03-10T07:06:30.960Z,98561.37
2023-03-10T07:08:59.530Z,98566.23
2023-03-10T07:11:28.106Z,98560.39
2023-03-10T07:13:57.292Z,98553.02
2023-03-10T07:16:25.815Z,98547.91
2023-03-10T07:18:54.071Z,98554.23
2023-03-10T07:21:22.567Z,98550.48
2023-03-10T07:23:50.893Z,98547.90
2023-03-10T07:26:19.476Z,98552.96
2023-03-10T07:28:48.054Z,98543.00
2023-03-10T07:31:17.497Z,98538.83
2023-03-10T07:33:46.205Z,98529.84
2023-03-10T07:36:17.762Z,98520.70
2023-03-10T07:38:46.433Z,98520.99
2023-03-10T07:41:20.786Z,98517.10
2023-03-10T07:43:53.275Z,98517.48
2023-03-10T07:46:22.489Z,98506.06
2023-03-10T07:48:53.198Z,98499.02
2023-03-10T07:51:21.802Z,98488.77
2023-03-10T07:53:50.629Z,98496.18
2023-03-10T07:56:19.990Z,98492.01
2023-03-10T07:58:48.751Z,98481.21
2023-03-10T08:01:23.238Z,98487.67
2023-03-10T08:03:51.905Z,98483.86
2023-03-10T08:06:23.894Z,98484.71
2023-03-10T08:08:53.059Z,98480.67
2023-03-10T08:11:22.036Z,98482.59
2023-03-10T08:13:51.263Z,98479.63
2023-03-10T08:16:21.616Z,98482.17
2023-03-10T08:18:52.591Z,98479.56
2023-03-10T08:21:21.175Z,98483.17
2023-03-10T08:23:49.543Z,98478.56
2023-03-10T08:26:19.262Z,98477.98
2023-03-10T08:28:49.615Z,98475.61
2023-03-10T08:31:20.197Z,98483.59
2023-03-10T08:33:49.500Z,98480.21
2023-03-10T08:36:20.936Z,98470.64
2023-03-10T08:38:51.566Z,98469.06
2023-03-10T08:41:23.422Z,98462.98
2023-03-10T08:43:53.254Z,98462.11
2023-03-10T08:46:24.964Z,98463.20
2023-03-10T08:48:54.344Z,98462.17
2023-03-10T08:51:23.894Z,98461.52
2023-03-10T08:53:53.096Z,98461.57
2023-03-10T08:56:22.870Z,98457.45
2023-03-10T08:58:54.540Z,98454.86
2023-03-10T09:01:23.002Z,98451.58
2023-03-10T09:03:51.606Z,98450.86
2023-03-10T09:06:20.550Z,98447.17
2023-03-10T09:08:50.885Z,98448.86
2023-03-10T09:11:24.012Z,98446.15
2023-03-10T09:13:53.270Z,98444.45
2023-03-10T09:16:22.333Z,98440.75
2023-03-10T09:18:50.632Z,98429.38
2023-03-10T09:21:20.075Z,98435.05
2023-03-10T09:23:50.409Z,98440.09
2023-03-10T09:26:20.093Z,98430.70
2023-03-10T09:28:50.306Z,98426.95
2023-03-10T09:31:39.795Z,98433.98
2023-03-10T09:34:08.634Z,98432.67
2023-03-10T09:36:36.971Z,98433.25
2023-03-10T09:39:05.657Z,98428.07
2023-03-10T09:41:38.351Z,98430.06
2023-03-10T09:44:15.509Z,98431.74
2023-03-10T09:46:52.677Z,98430.53
2023-03-10T09:49:52.015Z,98426.22
2023-03-10T09:52:28.971Z,98423.39
2023-03-10T09:55:18.578Z,98421.61
2023-03-10T09:57:50.653Z,98418.04
2023-03-10T10:00:35.864Z,98411.70
2023-03-10T10:03:20.958Z,98407.09
2023-03-10T10:05:53.577Z,98405.06
2023-03-10T10:09:03.447Z,98405.88
2023-03-10T10:11:33.528Z,98405.10
2023-03-10T10:14:31.083Z,98399.26
2023-03-10T10:17:47.272Z,98402.92
2023-03-10T10:20:43.728Z,98400.23
2023-03-10T10:23:38.878Z,98398.48
2023-03-10T10:26:26.582Z,98391.37
2023-03-10T10:28:57.724Z,98389.23
2023-03-10T10:31:28.883Z,98385.89
2023-03-10T10:34:06.426Z,98380.42
2023-03-10T10:36:37.494Z,98376.67
2023-03-10T10:39:28.217Z,98374.65
2023-03-10T10:42:20.553Z,98377.27
2023-03-10T10:44:56.077Z,98379.77
2023-03-10T10:47:50.772Z,98381.08
2023-03-10T10:50:25.003Z,98372.91
2023-03-10T10:53:24.557Z,98367.13
2023-03-10T10:56:13.127Z,98361.98
2023-03-10T10:58:44.290Z,98359.95
2023-03-10T11:01:15.309Z,98357.56
2023-03-10T11:03:46.440Z,98355.95
2023-03-10T11:06:21.596Z,98359.31
2023-03-10T11:08:53.524Z,98360.02
2023-03-10T11:11:39.151Z,98357.27
2023-03-10T11:14:31.829Z,98358.05
2023-03-10T11:17:00.288Z,98355.52
2023-03-10T11:19:56.166Z,98348.67
2023-03-10T11:22:53.245Z,98350.94
2023-03-10T11:25:37.090Z,98354.55
2023-03-10T11:28:15.163Z,98351.69
2023-03-10T11:31:02.135Z,98351.20
2023-03-10T11:33:48.786Z,98350.05
2023-03-10T11:36:35.073Z,98355.31
2023-03-10T11:39:16.003Z,98351.22
2023-03-10T11:41:50.224Z,98352.40
2023-03-10T11:44:34.076Z,98350.54
2023-03-10T11:47:17.753Z,98346.38
2023-03-10T11:49:53.791Z,98337.88
2023-03-10T11:52:25.355Z,98336.42
2023-03-10T11:55:06.273Z,98337.07
2023-03-10T11:57:46.166Z,98346.88
2023-03-10T12:00:49.993Z,98351.99
2023-03-10T12:03:36.783Z,98345.59
2023-03-10T12:06:13.212Z,98348.86
2023-03-10T12:08:42.391Z,98353.61
2023-03-10T12:11:17.360Z,98353.08
2023-03-10T12:13:51.647Z,98354.20
2023-03-10T12:16:24.894Z,98354.58
2023-03-10T12:18:54.087Z,98353.52
2023-03-10T12:21:28.509Z,98353.61
2023-03-10T12:24:02.883Z,98348.41
2023-03-10T12:26:40.243Z,98342.98
2023-03-10T12:29:20.909Z,98341.30
2023-03-10T12:31:51.068Z,98336.51
2023-03-10T12:34:32.519Z,98338.36
2023-03-10T12:37:07.451Z,98341.85
2023-03-10T12:39:41.336Z,98339.58
2023-03-10T12:42:30.639Z,98339.85
2023-03-10T12:45:12.619Z,98341.20
2023-03-10T12:47:59.994Z,98341.79
2023-03-10T12:50:42.196Z,98336.30
2023-03-10T12:53:26.378Z,98334.86
2023-03-10T12:56:42.431Z,98330.85
2023-03-10T12:59:29.480Z,98330.48
2023-03-10T13:01:59.869Z,98329.76
2023-03-10T13:04:28.365Z,98330.48
2023-03-10T13:07:03.813Z,98338.36
2023-03-10T13:09:42.697Z,98337.89
2023-03-10T13:12:36.879Z,98338.59
2023-03-10T13:15:08.767Z,98335.14
2023-03-10T13:17:37.282Z,98336.70
2023-03-10T13:20:15.495Z,98339.52
2023-03-10T13:22:57.466Z,98336.69
2023-03-10T13:25:26.303Z,98336.27
2023-03-10T13:27:57.739Z,98339.39
2023-03-10T13:30:28.225Z,98337.97
2023-03-10T13:33:02.764Z,98332.82
2023-03-10T13:35:31.398Z,98338.86
2023-03-10T13:38:13.124Z,98346.05
2023-03-10T13:40:47.459Z,98348.00
2023-03-10T13:43:38.723Z,98350.83
2023-03-10T13:46:15.898Z,98362.88
2023-03-10T13:48:47.372Z,98362.39
2023-03-10T13:51:26.818Z,98366.85
2023-03-10T13:53:58.822Z,98373.86
2023-03-10T13:56:36.136Z,98372.64
2023-03-10T13:59:07.314Z,98371.95
2023-03-10T14:01:39.729Z,98361.95
2023-03-10T14:04:11.475Z,98358.11
2023-03-10T14:06:43.293Z,98356.01
2023-03-10T14:09:22.365Z,98355.05
2023-03-10T14:11:51.940Z,98356.71
2023-03-10T14:14:36.083Z,98359.80
2023-03-10T14:17:35.434Z,98367.11
2023-03-10T14:20:05.424Z,98356.13
2023-03-10T14:22:41.554Z,98356.44
2023-03-10T14:25:21.666Z,98354.95
2023-03-10T14:28:00.575Z,98354.52
2023-03-10T14:30:33.504Z,98355.64
2023-03-10T14:33:02.156Z,98353.52
2023-03-10T14:35:30.548Z,98354.38
2023-03-10T14:37:58.966Z,98357.04
2023-03-10T14:40:27.807Z,98353.02
2023-03-10T14:43:01.361Z,98353.04
2023-03-10T14:45:36.074Z,98351.41
2023-03-10T14:48:15.496Z,98351.83
2023-03-10T14:50:44.579Z,98349.16
2023-03-10T14:53:16.128Z,98344.25
2023-03-10T14:55:49.062Z,98349.27
2023-03-10T14:58:27.122Z,98349.55
2023-03-10T15:00:55.791Z,98347.63
2023-03-10T15:03:24.238Z,98350.05
2023-03-10T15:05:54.173Z,98354.30
2023-03-10T15:08:22.836Z,98345.80
2023-03-10T15:10:52.509Z,98343.29
2023-03-10T15:13:24.098Z,98340.84
2023-03-10T15:15:53.410Z,98339.54
2023-03-10T15:18:23.861Z,98347.11
2023-03-10T15:20:52.275Z,98336.63
2023-03-10T15:23:23.643Z,98349.95
2023-03-10T15:25:52.315Z,98347.38
2023-03-10T15:28:20.653Z,98348.81
2023-03-10T15:30:49.954Z,98356.58
2023-03-10T15:33:18.794Z,98358.37
2023-03-10T15:35:47.147Z,98342.49
2023-03-10T15:38:16.171Z,98338.05
2023-03-10T15:40:44.582Z,98341.73
2023-03-10T15:43:14.259Z,98335.20
2023-03-10T15:45:47.022Z,98338.80
2023-03-10T15:48:15.526Z,98337.02
2023-03-10T15:50:47.213Z,98328.73
2023-03-10T15:53:15.699Z,98333.62
2023-03-10T15:55:43.861Z,98331.77
2023-03-10T15:58:12.880Z,98332.59
2023-03-10T16:00:44.057Z,98336.72
2023-03-10T16:03:18.033Z,98333.92
2023-03-10T16:05:51.153Z,98336.41
2023-03-10T16:08:19.558Z,98340.17
2023-03-10T16:10:53.436Z,98341.16
2023-03-10T16:13:22.712Z,98341.49
2023-03-10T16:15:52.995Z,98344.34
2023-03-10T16:18:21.640Z,98342.79
2023-03-10T16:21:00.728Z,98337.08
2023-03-10T16:23:33.421Z,98341.07
2023-03-10T16:26:15.750Z,98343.29
2023-03-10T16:29:40.465Z,98343.14
2023-03-10T16:32:09.502Z,98342.48
2023-03-10T16:34:38.301Z,98335.27
2023-03-10T16:37:08.379Z,98335.42
2023-03-10T16:39:37.105Z,98329.77
2023-03-10T16:42:05.505Z,98321.02
2023-03-10T16:44:33.823Z,98320.21
2023-03-10T16:47:03.192Z,98318.78
2023-03-10T16:49:33.012Z,98322.18
2023-03-10T16:52:03.462Z,98323.16
2023-03-10T16:54:31.824Z,98320.68
2023-03-10T16:57:01.764Z,98332.61
2023-03-10T16:59:30.630Z,98339.13
2023-03-10T17:02:01.620Z,98336.05
2023-03-10T17:04:30.418Z,98337.66
2023-03-10T17:06:59.223Z,98337.89
2023-03-10T17:09:28.547Z,98344.17
2023-03-10T17:11:56.549Z,98340.56
2023-03-10T17:14:25.059Z,98334.67
2023-03-10T17:16:56.272Z,98337.13
2023-03-10T17:19:29.139Z,98334.42
2023-03-10T17:21:58.493Z,98341.88
2023-03-10T17:24:27.499Z,98340.45
2023-03-10T17:26:56.225Z,98339.20
2023-03-10T17:29:24.478Z,98347.40
2023-03-10T17:31:52.909Z,98344.00
2023-03-10T17:34:21.499Z,98337.94
2023-03-10T17:36:51.224Z,98331.44
2023-03-10T17:39:22.092Z,98336.74
2023-03-10T17:41:55.661Z,98344.36
2023-03-10T17:44:24.715Z,98346.46
2023-03-10T17:46:53.359Z,98342.99
2023-03-10T17:49:22.156Z,98341.06
2023-03-10T17:51:53.008Z,98337.75
2023-03-10T17:54:22.607Z,98338.14
2023-03-10T17:56:51.232Z,98334.60
2023-03-10T17:59:19.657Z,98337.29
2023-03-10T18:01:49.555Z,98329.79
2023-03-10T18:04:18.239Z,98323.64
2023-03-10T18:06:47.366Z,98321.69
2023-03-10T18:09:16.669Z,98320.46
2023-03-10T18:11:45.524Z,98318.47
2023-03-10T18:14:17.522Z,98316.29
2023-03-10T18:16:46.216Z,98318.58
2023-03-10T18:19:17.783Z,98315.75
2023-03-10T18:21:49.916Z,98307.27
2023-03-10T18:24:18.180Z,98309.52
2023-03-10T18:26:46.295Z,98308.95
2023-03-10T18:29:15.118Z,98312.50
2023-03-10T18:31:43.798Z,98307.90
2023-03-10T18:34:13.881Z,98308.28
2023-03-10T18:36:42.332Z,98308.36
2023-03-10T18:39:11.779Z,98302.76
2023-03-10T18:41:41.358Z,98303.16
2023-03-10T18:44:12.953Z,98304.75
2023-03-10T18:46:41.831Z,98302.39
2023-03-10T18:49:13.412Z,98297.44
2023-03-10T18:51:41.949Z,98288.87
2023-03-10T18:54:10.758Z,98281.97
2023-03-10T18:56:39.660Z,98274.30
2023-03-10T18:59:08.183Z,98269.93
2023-03-10T19:01:36.599Z,98264.70
2023-03-10T19:04:05.582Z,98265.60
2023-03-10T19:06:34.870Z,98259.65
2023-03-10T19:09:04.361Z,98255.37
2023-03-10T19:11:39.449Z,98250.94
2023-03-10T19:14:07.980Z,98255.96
2023-03-10T19:16:43.248Z,98268.45
2023-03-10T19:19:11.882Z,98273.64
2023-03-10T19:21:40.390Z,98267.44
2023-03-10T19:24:08.890Z,98260.90
2023-03-10T19:26:37.564Z,98258.10
2023-03-10T19:29:06.212Z,98264.29
2023-03-10T19:31:34.743Z,98254.65
2023-03-10T19:34:03.730Z,98253.50
2023-03-10T19:36:32.079Z,98254.46
2023-03-10T19:39:02.628Z,98261.69
2023-03-10T19:41:31.420Z,98260.55
2023-03-10T19:44:00.246Z,98256.61
2023-03-10T19:46:29.977Z,98254.45
2023-03-10T19:48:58.412Z,98256.27
2023-03-10T19:51:29.418Z,98252.11
2023-03-10T19:53:58.301Z,98243.41
2023-03-10T19:56:27.019Z,98241.77
2023-03-10T19:58:55.993Z,98240.10
2023-03-10T20:01:26.769Z,98236.23
2023-03-10T20:03:58.746Z,98236.65
2023-03-10T20:06:27.778Z,98238.64
2023-03-10T20:08:57.605Z,98231.44
2023-03-10T20:11:29.442Z,98224.08
2023-03-10T20:13:57.814Z,98224.98
2023-03-10T20:16:28.051Z,98218.87
2023-03-10T20:18:56.740Z,98199.66
2023-03-10T20:21:26.500Z,98195.33
2023-03-10T20:23:56.326Z,98191.63
2023-03-10T20:26:25.109Z,98191.50
2023-03-10T20:28:53.694Z,98197.33
2023-03-10T20:31:24.740Z,98194.75
2023-03-10T20:33:53.499Z,98189.08
2023-03-10T20:36:23.010Z,98189.02
2023-03-10T20:38:51.753Z,98195.30
2023-03-10T20:41:20.841Z,98200.95
2023-03-10T20:43:50.025Z,98205.95
2023-03-10T20:46:19.708Z,98210.50
2023-03-10T20:48:51.128Z,98218.65
2023-03-10T20:51:22.817Z,98223.25
2023-03-10T20:53:52.274Z,98213.02
2023-03-10T20:56:20.563Z,98199.78
2023-03-10T20:58:49.037Z,98179.30
2023-03-10T21:01:20.652Z,98160.48
2023-03-10T21:03:49.265Z,98165.05
2023-03-10T21:06:18.270Z,98161.10
2023-03-10T21:08:48.081Z,98161.02
2023-03-10T21:11:17.881Z,98166.92
2023-03-10T21:13:49.244Z,98164.12
2023-03-10T21:16:20.928Z,98171.18
2023-03-10T21:18:49.526Z,98171.27
2023-03-10T21:21:21.093Z,98172.39
2023-03-10T21:23:49.523Z,98168.30
2023-03-10T21:26:22.130Z,98166.17
2023-03-10T21:28:52.244Z,98158.23
2023-03-10T21:31:20.907Z,98158.20
2023-03-10T21:33:50.551Z,98156.73
2023-03-10T21:36:22.046Z,98158.65
2023-03-10T21:38:51.404Z,98152.31
2023-03-10T21:41:28.621Z,98151.24
2023-03-10T21:43:59.412Z,98150.05
2023-03-10T21:46:27.810Z,98148.35
2023-03-10T21:48:56.348Z,98166.98
2023-03-10T21:51:27.034Z,98186.88
2023-03-10T21:53:55.716Z,98197.15
2023-03-10T21:56:26.168Z,98195.06
2023-03-10T21:58:55.563Z,98179.70
2023-03-10T22:01:26.238Z,98176.88
2023-03-10T22:03:54.780Z,98169.19
2023-03-10T22:06:23.155Z,98161.80
2023-03-10T22:08:51.648Z,98167.40
2023-03-10T22:11:20.737Z,98176.85
2023-03-10T22:13:49.933Z,98175.26
2023-03-10T22:16:19.738Z,98172.88
2023-03-10T22:18:49.843Z,98164.57
2023-03-10T22:21:19.815Z,98152.73
2023-03-10T22:23:48.811Z,98149.95
2023-03-10T22:26:17.092Z,98155.33
2023-03-10T22:28:45.457Z,98150.21
2023-03-10T22:31:13.958Z,98139.38
2023-03-10T22:33:42.445Z,98133.14
2023-03-10T22:36:13.494Z,98129.62
2023-03-10T22:38:43.200Z,98117.25
2023-03-10T22:41:13.203Z,98102.89
2023-03-10T22:43:41.856Z,98097.30
2023-03-10T22:46:15.635Z,98099.26
2023-03-10T22:48:44.987Z,98094.18
2023-03-10T22:51:16.996Z,98088.67
2023-03-10T22:53:49.328Z,98094.95
2023-03-10T22:56:21.490Z,98095.77
2023-03-10T22:58:49.669Z,98096.65
2023-03-10T23:01:18.221Z,98099.42
2023-03-10T23:03:46.627Z,98097.30
2023-03-10T23:06:14.955Z,98095.60
2023-03-10T23:08:44.261Z,98094.97
2023-03-10T23:11:15.678Z,98092.35
2023-03-10T23:13:44.060Z,98091.00
2023-03-10T23:16:12.655Z,98096.05
2023-03-10T23:18:40.975Z,98096.52
2023-03-10T23:21:10.096Z,98100.55
2023-03-10T23:23:39.624Z,98103.11
2023-03-10T23:26:08.199Z,98101.64
2023-03-10T23:28:36.734Z,98100.25
2023-03-10T23:31:07.940Z,98107.15
2023-03-10T23:33:36.302Z,98108.45
2023-03-10T23:36:05.117Z,98107.88
2023-03-10T23:38:36.192Z,98109.58
2023-03-10T23:41:06.213Z,98105.36
2023-03-10T23:43:38.465Z,98103.73
2023-03-10T23:46:08.334Z,98098.23
2023-03-10T23:48:37.005Z,98100.65
2023-03-10T23:51:05.520Z,98099.71
2023-03-10T23:53:34.048Z,98099.20
2023-03-10T23:56:02.574Z,98095.11
2023-03-10T23:58:30.939Z,98091.83
